createdAt,value
2023-01-17T00:00:32.638Z,20.4
2023-01-17T00:15:32.136Z,20.4
2023-01-17T00:30:32.233Z,20.4
2023-01-17T00:45:32.100Z,20.4
2023-01-17T01:00:32.446Z,20.4
2023-01-17T01:15:31.794Z,20.3
2023-01-17T01:30:32.283Z,20.3
2023-01-17T01:45:32.581Z,20.3
2023-01-17T02:00:31.791Z,20.3
2023-01-17T02:15:31.889Z,20.3
2023-01-17T02:30:31.778Z,20.2
2023-01-17T02:45:31.939Z,20.2
2023-01-17T03:00:31.843Z,20.2
2023-01-17T03:15:32.631Z,20.2
2023-01-17T03:30:32.314Z,20.2
2023-01-17T03:45:32.508Z,20.2
2023-01-17T04:00:32.652Z,20.2
2023-01-17T04:15:32.271Z,20.1
2023-01-17T04:30:32.587Z,20.1
2023-01-17T04:45:31.824Z,20.1
2023-01-17T05:00:31.845Z,20.1
2023-01-17T05:15:32.016Z,20.1
2023-01-17T05:30:32.269Z,20.1
2023-01-17T05:45:32.321Z,20.1
2023-01-17T06:00:33.810Z,20.0
2023-01-17T06:15:32.323Z,20.0
2023-01-17T06:30:32.796Z,20.1
2023-01-17T06:45:32.718Z,20.2
2023-01-17T07:00:38.240Z,20.2
2023-01-17T07:15:32.583Z,20.4
2023-01-17T07:30:33.587Z,20.4
2023-01-17T07:45:32.676Z,20.6
2023-01-17T08:00:34.027Z,20.6
2023-01-17T08:15:32.760Z,20.8
2023-01-17T08:30:32.304Z,20.9
2023-01-17T08:45:32.846Z,21.0
2023-01-17T09:00:33.758Z,21
2023-01-17T09:15:32.680Z,21.1
2023-01-17T09:30:33.027Z,21.1
2023-01-17T09:45:32.194Z,21.1
2023-01-17T10:00:32.915Z,21.2
2023-01-17T10:15:32.551Z,21.3
2023-01-17T10:30:33.466Z,21.3
2023-01-17T10:45:33.382Z,21.3
2023-01-17T11:00:32.735Z,21.3
2023-01-17T11:15:32.107Z,21.4
2023-01-17T11:30:32.613Z,21.4
2023-01-17T11:45:32.715Z,21.4
2023-01-17T12:00:36.175Z,21.4
2023-01-17T12:15:32.733Z,21.5
2023-01-17T12:30:33.283Z,21.6
2023-01-17T12:45:32.461Z,21.6
2023-01-17T13:00:34.061Z,21.7
2023-01-17T13:15:32.136Z,21.8
2023-01-17T13:30:32.696Z,21.8
2023-01-17T13:45:32.347Z,21.8
2023-01-17T14:00:35.254Z,21.8
2023-01-17T14:15:32.564Z,21.8
2023-01-17T14:30:33.109Z,21.8
2023-01-17T14:45:33.046Z,21.8
2023-01-17T15:00:33.595Z,21.8
2023-01-17T15:15:32.147Z,21.8
2023-01-17T15:30:34.177Z,21.7
2023-01-17T15:45:32.328Z,21.6
2023-01-17T16:00:36.189Z,21.6
2023-01-17T16:15:32.656Z,21.5
2023-01-17T16:30:34.585Z,21.5
2023-01-17T16:45:32.748Z,21.4
2023-01-17T17:00:35.934Z,21.4
2023-01-17T17:15:32.859Z,21.3
2023-01-17T17:30:33.248Z,21.3
2023-01-17T17:45:32.188Z,21.3
2023-01-17T18:00:37.353Z,21.2
2023-01-17T18:15:31.863Z,21.2
2023-01-17T18:30:32.621Z,21.2
2023-01-17T18:45:32.345Z,21.1
2023-01-17T19:00:35.018Z,21.1
2023-01-17T19:15:32.520Z,21.1
2023-01-17T19:30:34.021Z,21.0
2023-01-17T19:45:32.580Z,21.0
2023-01-17T20:00:45.835Z,21
2023-01-17T20:15:32.191Z,20.9
2023-01-17T20:30:32.095Z,20.9
2023-01-17T20:45:32.091Z,20.9
2023-01-17T21:00:32.266Z,20.8
2023-01-17T21:15:32.533Z,20.8
2023-01-17T21:30:32.205Z,20.8
2023-01-17T21:45:32.635Z,20.8
2023-01-17T22:00:33.160Z,20.7
2023-01-17T22:15:32.397Z,20.7
2023-01-17T22:30:32.621Z,20.6
2023-01-17T22:45:32.163Z,20.6
2023-01-17T23:00:32.380Z,20.6
2023-01-17T23:15:32.061Z,20.6
2023-01-17T23:30:32.111Z,20.6
2023-01-17T23:45:32.400Z,20.5
